createdAt,value
2018-11-26T00:00:00.906Z,1013.21
2018-11-26T00:01:00.872Z,1013.20
2018-11-26T00:02:00.838Z,1013.23
2018-11-26T00:03:00.802Z,1013.23
2018-11-26T00:04:00.769Z,1013.23
2018-11-26T00:05:00.734Z,1013.25
2018-11-26T00:06:00.699Z,1013.22
2018-11-26T00:07:00.664Z,1013.25
2018-11-26T00:08:00.631Z,1013.21
2018-11-26T00:09:00.597Z,1013.24
2018-11-26T00:10:00.564Z,1013.28
2018-11-26T00:11:00.529Z,1013.27
2018-11-26T00:12:00.493Z,1013.31
2018-11-26T00:13:00.459Z,1013.29
2018-11-26T00:14:00.425Z,1013.33
2018-11-26T00:15:00.390Z,1013.33
2018-11-26T00:16:00.356Z,1013.33
2018-11-26T00:17:00.322Z,1013.32
2018-11-26T00:18:00.288Z,1013.34
2018-11-26T00:19:00.252Z,1013.31
2018-11-26T00:20:00.220Z,1013.28
2018-11-26T00:21:00.187Z,1013.26
2018-11-26T00:22:00.161Z,1013.26
2018-11-26T00:23:00.115Z,1013.24
2018-11-26T00:24:00.083Z,1013.26
2018-11-26T00:25:00.051Z,1013.26
2018-11-26T00:26:00.012Z,1013.27
2018-11-26T00:26:59.981Z,1013.30
2018-11-26T00:27:59.943Z,1013.29
2018-11-26T00:28:59.908Z,1013.31
2018-11-26T00:29:59.875Z,1013.30
2018-11-26T00:30:59.839Z,1013.30
2018-11-26T00:31:59.807Z,1013.35
2018-11-26T00:32:59.771Z,1013.33
2018-11-26T00:33:59.737Z,1013.35
2018-11-26T00:34:59.702Z,1013.30
2018-11-26T00:35:59.667Z,1013.30
2018-11-26T00:36:59.633Z,1013.33
2018-11-26T00:37:59.600Z,1013.35
2018-11-26T00:38:59.561Z,1013.31
2018-11-26T00:39:59.527Z,1013.32
2018-11-26T00:40:59.493Z,1013.31
2018-11-26T00:41:59.457Z,1013.36
2018-11-26T00:42:59.425Z,1013.33
2018-11-26T00:43:59.391Z,1013.33
2018-11-26T00:44:59.353Z,1013.32
2018-11-26T00:45:59.320Z,1013.33
2018-11-26T00:46:59.284Z,1013.29
2018-11-26T00:47:59.250Z,1013.31
2018-11-26T00:48:59.215Z,1013.28
2018-11-26T00:49:59.180Z,1013.31
2018-11-26T00:50:59.143Z,1013.31
2018-11-26T00:51:59.109Z,1013.30
2018-11-26T00:52:59.076Z,1013.30
2018-11-26T00:53:59.040Z,1013.26
2018-11-26T00:54:59.006Z,1013.33
2018-11-26T00:55:58.969Z,1013.34
2018-11-26T00:56:58.935Z,1013.32
2018-11-26T00:57:58.900Z,1013.34
2018-11-26T00:58:58.865Z,1013.35
2018-11-26T00:59:58.830Z,1013.32
2018-11-26T01:00:58.794Z,1013.32
2018-11-26T01:01:58.760Z,1013.36
2018-11-26T01:02:58.722Z,1013.36
2018-11-26T01:03:58.689Z,1013.34
2018-11-26T01:04:58.657Z,1013.34
2018-11-26T01:05:58.627Z,1013.33
2018-11-26T01:06:58.582Z,1013.34
2018-11-26T01:07:58.546Z,1013.33
2018-11-26T01:08:58.513Z,1013.38
2018-11-26T01:09:58.477Z,1013.37
2018-11-26T01:10:58.441Z,1013.39
2018-11-26T01:11:58.407Z,1013.35
2018-11-26T01:12:58.372Z,1013.38
2018-11-26T01:13:58.335Z,1013.35
2018-11-26T01:14:58.299Z,1013.40
2018-11-26T01:15:58.263Z,1013.40
2018-11-26T01:16:58.229Z,1013.41
2018-11-26T01:17:58.195Z,1013.40
2018-11-26T01:18:58.157Z,1013.41
2018-11-26T01:19:58.122Z,1013.44
2018-11-26T01:20:58.087Z,1013.46
2018-11-26T01:21:58.055Z,1013.44
2018-11-26T01:22:58.019Z,1013.46
2018-11-26T01:23:57.980Z,1013.48
2018-11-26T01:24:57.944Z,1013.44
2018-11-26T01:25:57.909Z,1013.45
2018-11-26T01:26:57.877Z,1013.44
2018-11-26T01:27:57.838Z,1013.45
2018-11-26T01:28:57.803Z,1013.44
2018-11-26T01:29:57.768Z,1013.46
2018-11-26T01:30:57.731Z,1013.45
2018-11-26T01:31:57.695Z,1013.39
2018-11-26T01:32:57.661Z,1013.40
2018-11-26T01:33:57.624Z,1013.39
2018-11-26T01:34:57.588Z,1013.42
2018-11-26T01:35:57.553Z,1013.39
2018-11-26T01:36:57.518Z,1013.40
2018-11-26T01:37:57.490Z,1013.41
2018-11-26T01:38:57.445Z,1013.39
2018-11-26T01:39:57.409Z,1013.38
2018-11-26T01:40:57.374Z,1013.36
2018-11-26T01:41:57.344Z,1013.36
2018-11-26T01:42:57.302Z,1013.34
2018-11-26T01:43:57.271Z,1013.38
2018-11-26T01:44:57.231Z,1013.33
2018-11-26T01:45:57.196Z,1013.37
2018-11-26T01:46:57.159Z,1013.35
2018-11-26T01:47:57.125Z,1013.39
2018-11-26T01:48:57.088Z,1013.35
2018-11-26T01:49:57.051Z,1013.38
2018-11-26T01:50:57.016Z,1013.39
2018-11-26T01:51:56.983Z,1013.40
2018-11-26T01:52:56.945Z,1013.37
2018-11-26T01:53:56.910Z,1013.42
2018-11-26T01:54:56.873Z,1013.44
2018-11-26T01:55:56.837Z,1013.42
2018-11-26T01:56:56.801Z,1013.45
2018-11-26T01:57:56.765Z,1013.42
2018-11-26T01:58:56.728Z,1013.42
2018-11-26T01:59:56.693Z,1013.46
2018-11-26T02:00:56.659Z,1013.48
2018-11-26T02:01:56.622Z,1013.45
2018-11-26T02:02:56.585Z,1013.47
2018-11-26T02:03:56.549Z,1013.42
2018-11-26T02:04:56.514Z,1013.40
2018-11-26T02:05:56.477Z,1013.34
2018-11-26T02:06:56.440Z,1013.31
2018-11-26T02:07:56.405Z,1013.33
2018-11-26T02:08:56.369Z,1013.32
2018-11-26T02:09:56.334Z,1013.26
2018-11-26T02:10:56.296Z,1013.27
2018-11-26T02:11:56.268Z,1013.26
2018-11-26T02:12:56.224Z,1013.32
2018-11-26T02:13:56.189Z,1013.25
2018-11-26T02:14:56.150Z,1013.30
2018-11-26T02:15:56.116Z,1013.29
2018-11-26T02:16:56.078Z,1013.27
2018-11-26T02:17:56.044Z,1013.27
2018-11-26T02:18:56.007Z,1013.22
2018-11-26T02:19:55.972Z,1013.24
2018-11-26T02:20:55.935Z,1013.30
2018-11-26T02:21:55.899Z,1013.27
2018-11-26T02:22:55.862Z,1013.30
2018-11-26T02:23:55.824Z,1013.31
2018-11-26T02:24:55.790Z,1013.29
2018-11-26T02:25:55.753Z,1013.26
2018-11-26T02:26:55.716Z,1013.28
2018-11-26T02:27:55.680Z,1013.29
2018-11-26T02:28:55.644Z,1013.24
2018-11-26T02:29:55.608Z,1013.27
2018-11-26T02:30:55.571Z,1013.18
2018-11-26T02:31:55.536Z,1013.21
2018-11-26T02:32:55.504Z,1013.19
2018-11-26T02:33:55.463Z,1013.17
2018-11-26T02:34:55.425Z,1013.19
2018-11-26T02:35:55.390Z,1013.22
2018-11-26T02:36:55.354Z,1013.21
2018-11-26T02:37:55.318Z,1013.21
2018-11-26T02:38:55.281Z,1013.20
2018-11-26T02:39:55.248Z,1013.20
2018-11-26T02:40:55.209Z,1013.21
2018-11-26T02:41:55.180Z,1013.23
2018-11-26T02:42:55.136Z,1013.21
2018-11-26T02:43:55.105Z,1013.19
2018-11-26T02:44:55.063Z,1013.15
2018-11-26T02:45:55.033Z,1013.20
2018-11-26T02:46:54.991Z,1013.18
2018-11-26T02:47:54.955Z,1013.22
2018-11-26T02:48:54.917Z,1013.17
2018-11-26T02:49:54.881Z,1013.22
2018-11-26T02:50:54.844Z,1013.19
2018-11-26T02:51:54.811Z,1013.20
2018-11-26T02:52:54.779Z,1013.20
2018-11-26T02:53:54.736Z,1013.22
2018-11-26T02:54:54.703Z,1013.25
2018-11-26T02:55:54.663Z,1013.27
2018-11-26T02:56:54.627Z,1013.26
2018-11-26T02:57:54.591Z,1013.28
2018-11-26T02:58:54.555Z,1013.27
2018-11-26T02:59:54.517Z,1013.28
2018-11-26T03:00:54.480Z,1013.28
2018-11-26T03:01:54.445Z,1013.32
2018-11-26T03:02:54.409Z,1013.33
2018-11-26T03:03:54.373Z,1013.31
2018-11-26T03:04:54.335Z,1013.29
2018-11-26T03:05:54.301Z,1013.30
2018-11-26T03:06:54.265Z,1013.29
2018-11-26T03:07:54.227Z,1013.30
2018-11-26T03:08:54.190Z,1013.29
2018-11-26T03:09:54.160Z,1013.30
2018-11-26T03:10:54.116Z,1013.33
2018-11-26T03:11:54.079Z,1013.31
2018-11-26T03:12:54.046Z,1013.34
2018-11-26T03:13:54.008Z,1013.31
2018-11-26T03:14:53.976Z,1013.34
2018-11-26T03:15:53.933Z,1013.37
2018-11-26T03:16:53.898Z,1013.32
2018-11-26T03:17:53.864Z,1013.30
2018-11-26T03:18:53.824Z,1013.36
2018-11-26T03:19:53.787Z,1013.34
2018-11-26T03:20:53.752Z,1013.32
2018-11-26T03:21:53.716Z,1013.38
2018-11-26T03:22:53.681Z,1013.39
2018-11-26T03:23:53.641Z,1013.42
2018-11-26T03:24:53.604Z,1013.37
2018-11-26T03:25:53.568Z,1013.41
2018-11-26T03:26:53.532Z,1013.38
2018-11-26T03:27:53.499Z,1013.36
2018-11-26T03:28:53.459Z,1013.39
2018-11-26T03:29:53.423Z,1013.39
2018-11-26T03:30:53.385Z,1013.35
2018-11-26T03:31:53.349Z,1013.37
2018-11-26T03:32:53.316Z,1013.43
2018-11-26T03:33:53.276Z,1013.38
2018-11-26T03:34:53.239Z,1013.41
2018-11-26T03:35:53.203Z,1013.42
2018-11-26T03:36:53.167Z,1013.41
2018-11-26T03:37:53.129Z,1013.42
2018-11-26T03:38:53.092Z,1013.41
2018-11-26T03:39:53.054Z,1013.44
2018-11-26T03:40:53.018Z,1013.40
2018-11-26T03:41:52.983Z,1013.43
2018-11-26T03:42:52.947Z,1013.44
2018-11-26T03:43:52.909Z,1013.42
2018-11-26T03:44:52.873Z,1013.42
2018-11-26T03:45:52.837Z,1013.43
2018-11-26T03:46:52.801Z,1013.40
2018-11-26T03:47:52.768Z,1013.39
2018-11-26T03:48:52.725Z,1013.44
2018-11-26T03:49:52.688Z,1013.43
2018-11-26T03:50:52.655Z,1013.43
2018-11-26T03:51:52.615Z,1013.41
2018-11-26T03:52:52.578Z,1013.42
2018-11-26T03:53:52.543Z,1013.38
2018-11-26T03:54:52.504Z,1013.37
2018-11-26T03:55:52.469Z,1013.38
2018-11-26T03:56:52.432Z,1013.39
2018-11-26T03:57:52.393Z,1013.40
2018-11-26T03:58:52.358Z,1013.37
2018-11-26T03:59:52.321Z,1013.39
2018-11-26T04:00:52.284Z,1013.33
2018-11-26T04:01:52.249Z,1013.34
2018-11-26T04:02:52.211Z,1013.38
2018-11-26T04:03:52.175Z,1013.34
2018-11-26T04:04:52.139Z,1013.35
2018-11-26T04:05:52.100Z,1013.31
2018-11-26T04:06:52.063Z,1013.33
2018-11-26T04:07:52.028Z,1013.35
2018-11-26T04:08:51.990Z,1013.38
2018-11-26T04:09:51.953Z,1013.39
2018-11-26T04:10:51.916Z,1013.41
2018-11-26T04:11:51.878Z,1013.43
2018-11-26T04:12:51.841Z,1013.44
2018-11-26T04:13:51.810Z,1013.41
2018-11-26T04:14:51.768Z,1013.45
2018-11-26T04:15:51.731Z,1013.40
2018-11-26T04:16:51.696Z,1013.38
2018-11-26T04:17:51.660Z,1013.42
2018-11-26T04:18:51.620Z,1013.42
2018-11-26T04:19:51.585Z,1013.42
2018-11-26T04:20:51.547Z,1013.44
2018-11-26T04:21:51.510Z,1013.45
2018-11-26T04:22:51.473Z,1013.49
2018-11-26T04:23:51.436Z,1013.45
2018-11-26T04:24:51.401Z,1013.49
2018-11-26T04:25:51.366Z,1013.46
2018-11-26T04:26:51.324Z,1013.44
2018-11-26T04:27:51.289Z,1013.45
2018-11-26T04:28:51.252Z,1013.41
2018-11-26T04:29:51.215Z,1013.40
2018-11-26T04:30:51.178Z,1013.39
2018-11-26T04:31:51.140Z,1013.41
2018-11-26T04:32:51.104Z,1013.44
2018-11-26T04:33:51.066Z,1013.42
2018-11-26T04:34:51.028Z,1013.41
2018-11-26T04:35:50.992Z,1013.43
2018-11-26T04:36:50.957Z,1013.45
2018-11-26T04:37:50.918Z,1013.46
2018-11-26T04:38:50.882Z,1013.43
2018-11-26T04:39:50.844Z,1013.42
2018-11-26T04:40:50.807Z,1013.44
2018-11-26T04:41:50.769Z,1013.43
2018-11-26T04:42:50.733Z,1013.41
2018-11-26T04:43:50.696Z,1013.39
2018-11-26T04:44:50.659Z,1013.39
2018-11-26T04:45:50.624Z,1013.37
2018-11-26T04:46:50.585Z,1013.37
2018-11-26T04:47:50.548Z,1013.40
2018-11-26T04:48:50.510Z,1013.39
2018-11-26T04:49:50.473Z,1013.40
2018-11-26T04:50:50.435Z,1013.37
2018-11-26T04:51:50.399Z,1013.46
2018-11-26T04:52:50.369Z,1013.47
2018-11-26T04:53:50.330Z,1013.46
2018-11-26T04:54:50.291Z,1013.48
2018-11-26T04:55:50.256Z,1013.47
2018-11-26T04:56:50.215Z,1013.49
2018-11-26T04:57:50.179Z,1013.46
2018-11-26T04:58:50.138Z,1013.46
2018-11-26T04:59:50.100Z,1013.47
2018-11-26T05:00:50.064Z,1013.48
2018-11-26T05:01:50.027Z,1013.50
2018-11-26T05:02:49.999Z,1013.48
2018-11-26T05:03:49.953Z,1013.49
2018-11-26T05:04:49.916Z,1013.45
2018-11-26T05:05:49.878Z,1013.48
2018-11-26T05:06:49.841Z,1013.47
2018-11-26T05:07:49.805Z,1013.47
2018-11-26T05:08:49.780Z,1013.48
2018-11-26T05:09:49.729Z,1013.47
2018-11-26T05:10:49.692Z,1013.48
2018-11-26T05:11:49.654Z,1013.44
2018-11-26T05:12:49.619Z,1013.50
2018-11-26T05:13:49.583Z,1013.50
2018-11-26T05:14:49.543Z,1013.48
2018-11-26T05:15:49.506Z,1013.48
2018-11-26T05:16:49.471Z,1013.52
2018-11-26T05:17:49.431Z,1013.49
2018-11-26T05:18:49.394Z,1013.50
2018-11-26T05:19:49.357Z,1013.47
2018-11-26T05:20:49.321Z,1013.50
2018-11-26T05:21:49.284Z,1013.51
2018-11-26T05:22:49.246Z,1013.50
2018-11-26T05:23:49.208Z,1013.54
2018-11-26T05:24:49.172Z,1013.55
2018-11-26T05:25:49.134Z,1013.57
2018-11-26T05:26:49.097Z,1013.59
2018-11-26T05:27:49.062Z,1013.60
2018-11-26T05:28:49.023Z,1013.55
2018-11-26T05:29:48.985Z,1013.56
2018-11-26T05:30:48.949Z,1013.58
2018-11-26T05:31:48.910Z,1013.56
2018-11-26T05:32:48.874Z,1013.56
2018-11-26T05:33:48.837Z,1013.57
2018-11-26T05:34:48.801Z,1013.56
2018-11-26T05:35:48.763Z,1013.60
2018-11-26T05:36:48.726Z,1013.53
2018-11-26T05:37:48.688Z,1013.58
2018-11-26T05:38:48.650Z,1013.62
2018-11-26T05:39:48.612Z,1013.57
2018-11-26T05:40:48.576Z,1013.60
2018-11-26T05:41:48.538Z,1013.54
2018-11-26T05:42:48.500Z,1013.53
2018-11-26T05:43:48.463Z,1013.53
2018-11-26T05:44:48.429Z,1013.51
2018-11-26T05:45:48.390Z,1013.53
2018-11-26T05:46:48.352Z,1013.53
2018-11-26T05:47:48.316Z,1013.60
2018-11-26T05:48:48.282Z,1013.54
2018-11-26T05:49:48.241Z,1013.52
2018-11-26T05:50:48.204Z,1013.53
2018-11-26T05:51:48.168Z,1013.54
2018-11-26T05:52:48.133Z,1013.53
2018-11-26T05:53:48.096Z,1013.56
2018-11-26T05:54:48.059Z,1013.59
2018-11-26T05:55:48.025Z,1013.59
2018-11-26T05:56:47.984Z,1013.61
2018-11-26T05:57:47.951Z,1013.60
2018-11-26T05:58:47.910Z,1013.57
2018-11-26T05:59:47.874Z,1013.56
2018-11-26T06:00:47.837Z,1013.54
2018-11-26T06:01:47.802Z,1013.52
2018-11-26T06:02:47.764Z,1013.52
2018-11-26T06:03:47.730Z,1013.46
2018-11-26T06:04:47.693Z,1013.52
2018-11-26T06:05:47.655Z,1013.49
2018-11-26T06:06:47.618Z,1013.52
2018-11-26T06:07:47.582Z,1013.51
2018-11-26T06:08:47.547Z,1013.50
2018-11-26T06:09:47.511Z,1013.52
2018-11-26T06:10:47.474Z,1013.58
2018-11-26T06:11:47.436Z,1013.60
2018-11-26T06:12:47.402Z,1013.61
2018-11-26T06:13:47.366Z,1013.64
2018-11-26T06:14:47.328Z,1013.60
2018-11-26T06:15:47.292Z,1013.57
2018-11-26T06:16:53.503Z,1013.64
2018-11-26T06:17:47.220Z,1013.61
2018-11-26T06:18:47.183Z,1013.59
2018-11-26T06:19:47.154Z,1013.59
2018-11-26T06:20:47.110Z,1013.57
2018-11-26T06:21:47.075Z,1013.58
2018-11-26T06:22:47.038Z,1013.60
2018-11-26T06:23:47.002Z,1013.59
2018-11-26T06:24:46.969Z,1013.59
2018-11-26T06:25:46.931Z,1013.61
2018-11-26T06:26:46.893Z,1013.59
2018-11-26T06:27:46.858Z,1013.55
2018-11-26T06:28:46.822Z,1013.60
2018-11-26T06:29:46.787Z,1013.66
2018-11-26T06:30:46.749Z,1013.64
2018-11-26T06:31:46.714Z,1013.69
2018-11-26T06:32:46.679Z,1013.69
2018-11-26T06:33:46.643Z,1013.69
2018-11-26T06:34:46.606Z,1013.69
2018-11-26T06:35:46.575Z,1013.67
2018-11-26T06:36:46.533Z,1013.74
2018-11-26T06:37:46.503Z,1013.74
2018-11-26T06:38:46.463Z,1013.76
2018-11-26T06:39:46.425Z,1013.81
2018-11-26T06:40:46.390Z,1013.83
2018-11-26T06:41:46.356Z,1013.81
2018-11-26T06:42:46.321Z,1013.80
2018-11-26T06:43:46.284Z,1013.86
2018-11-26T06:44:46.248Z,1013.79
2018-11-26T06:45:46.212Z,1013.84
2018-11-26T06:46:46.175Z,1013.80
2018-11-26T06:47:46.139Z,1013.88
2018-11-26T06:48:46.104Z,1013.90
2018-11-26T06:49:46.068Z,1013.89
2018-11-26T06:50:46.032Z,1013.89
2018-11-26T06:51:45.996Z,1013.91
2018-11-26T06:52:45.971Z,1013.90
2018-11-26T06:53:45.933Z,1013.87
2018-11-26T06:54:45.889Z,1013.92
2018-11-26T06:55:45.854Z,1013.98
2018-11-26T06:56:45.818Z,1013.98
2018-11-26T06:57:45.782Z,1013.99
2018-11-26T06:58:45.751Z,1013.95
2018-11-26T06:59:45.711Z,1013.96
2018-11-26T07:00:45.674Z,1013.98
2018-11-26T07:01:45.639Z,1013.94
2018-11-26T07:02:45.602Z,1013.94
2018-11-26T07:03:45.567Z,1013.98
2018-11-26T07:04:45.533Z,1013.99
2018-11-26T07:05:45.497Z,1013.95
2018-11-26T07:06:45.460Z,1013.99
2018-11-26T07:07:45.425Z,1013.99
2018-11-26T07:08:45.390Z,1014.04
2018-11-26T07:09:45.354Z,1014.03
2018-11-26T07:10:45.317Z,1014.05
2018-11-26T07:11:45.284Z,1014.04
2018-11-26T07:12:45.248Z,1014.03
2018-11-26T07:13:45.212Z,1014.06
2018-11-26T07:14:45.176Z,1014.03
2018-11-26T07:15:45.139Z,1014.00
2018-11-26T07:16:45.105Z,1013.99
2018-11-26T07:17:45.071Z,1013.95
2018-11-26T07:18:45.032Z,1013.97
2018-11-26T07:19:44.997Z,1013.91
2018-11-26T07:20:44.966Z,1013.96
2018-11-26T07:21:44.927Z,1013.94
2018-11-26T07:22:44.891Z,1014.00
2018-11-26T07:23:44.855Z,1013.97
2018-11-26T07:24:44.822Z,1013.99
2018-11-26T07:25:44.785Z,1013.97
2018-11-26T07:26:44.749Z,1014.04
2018-11-26T07:27:44.715Z,1014.05
2018-11-26T07:28:44.678Z,1014.02
2018-11-26T07:29:44.642Z,1014.05
2018-11-26T07:30:44.608Z,1014.07
2018-11-26T07:31:44.572Z,1014.05
2018-11-26T07:32:44.536Z,1014.04
2018-11-26T07:33:44.501Z,1014.03
2018-11-26T07:34:44.466Z,1014.02
2018-11-26T07:35:44.433Z,1014.01
2018-11-26T07:36:44.394Z,1014.04
2018-11-26T07:37:44.359Z,1014.04
2018-11-26T07:38:44.323Z,1014.05
2018-11-26T07:39:44.287Z,1014.04
2018-11-26T07:40:44.251Z,1014.05
2018-11-26T07:41:44.221Z,1014.07
2018-11-26T07:42:44.183Z,1014.10
2018-11-26T07:43:44.147Z,1014.09
2018-11-26T07:44:44.111Z,1014.12
2018-11-26T07:45:44.076Z,1014.14
2018-11-26T07:46:44.039Z,1014.11
2018-11-26T07:47:44.005Z,1014.16
2018-11-26T07:48:43.968Z,1014.12
2018-11-26T07:49:43.934Z,1014.11
2018-11-26T07:50:43.899Z,1014.10
2018-11-26T07:51:43.862Z,1014.08
2018-11-26T07:52:43.827Z,1014.11
2018-11-26T07:53:43.792Z,1014.08
2018-11-26T07:54:43.756Z,1014.07
2018-11-26T07:55:43.721Z,1014.09
2018-11-26T07:56:43.688Z,1014.09
2018-11-26T07:57:43.650Z,1014.12
2018-11-26T07:58:43.615Z,1014.12
2018-11-26T07:59:43.580Z,1014.10
2018-11-26T08:00:43.544Z,1014.13
2018-11-26T08:01:43.508Z,1014.13
2018-11-26T08:02:43.473Z,1014.11
2018-11-26T08:03:43.438Z,1014.12
2018-11-26T08:04:43.402Z,1014.09
2018-11-26T08:05:43.368Z,1014.06
2018-11-26T08:06:43.331Z,1014.04
2018-11-26T08:07:43.297Z,1014.03
2018-11-26T08:08:43.261Z,1014.04
2018-11-26T08:09:43.227Z,1014.08
2018-11-26T08:10:43.190Z,1014.08
2018-11-26T08:11:43.156Z,1014.07
2018-11-26T08:12:43.120Z,1014.13
2018-11-26T08:13:43.087Z,1014.15
2018-11-26T08:14:43.051Z,1014.13
2018-11-26T08:15:43.018Z,1014.13
2018-11-26T08:16:42.981Z,1014.14
2018-11-26T08:17:42.945Z,1014.11
2018-11-26T08:18:42.909Z,1014.15
2018-11-26T08:19:42.876Z,1014.11
2018-11-26T08:20:42.841Z,1014.16
2018-11-26T08:21:42.805Z,1014.14
2018-11-26T08:22:42.769Z,1014.21
2018-11-26T08:23:42.736Z,1014.18
2018-11-26T08:24:42.700Z,1014.18
2018-11-26T08:25:42.667Z,1014.18
2018-11-26T08:26:42.631Z,1014.18
2018-11-26T08:27:42.599Z,1014.19
2018-11-26T08:28:42.562Z,1014.17
2018-11-26T08:29:42.528Z,1014.20
2018-11-26T08:30:42.489Z,1014.16
2018-11-26T08:31:42.456Z,1014.15
2018-11-26T08:32:42.420Z,1014.18
2018-11-26T08:33:42.387Z,1014.24
2018-11-26T08:34:42.350Z,1014.24
2018-11-26T08:35:42.317Z,1014.28
2018-11-26T08:36:42.281Z,1014.32
2018-11-26T08:37:42.246Z,1014.30
2018-11-26T08:38:42.212Z,1014.28
2018-11-26T08:39:42.177Z,1014.31
2018-11-26T08:40:42.142Z,1014.29
2018-11-26T08:41:42.105Z,1014.26
2018-11-26T08:42:42.072Z,1014.32
2018-11-26T08:43:42.037Z,1014.28
2018-11-26T08:44:42.003Z,1014.33
2018-11-26T08:45:41.979Z,1014.37
2018-11-26T08:46:41.937Z,1014.35
2018-11-26T08:47:41.901Z,1014.35
2018-11-26T08:48:41.865Z,1014.34
2018-11-26T08:49:41.828Z,1014.36
2018-11-26T08:50:41.795Z,1014.34
2018-11-26T08:51:41.757Z,1014.36
2018-11-26T08:52:41.723Z,1014.35
2018-11-26T08:53:41.691Z,1014.38
2018-11-26T08:54:41.655Z,1014.36
2018-11-26T08:55:41.619Z,1014.38
2018-11-26T08:56:41.585Z,1014.34
2018-11-26T08:57:41.551Z,1014.37
2018-11-26T08:58:41.514Z,1014.34
2018-11-26T08:59:41.480Z,1014.35
2018-11-26T09:00:41.452Z,1014.36
2018-11-26T09:01:41.410Z,1014.36
2018-11-26T09:02:41.376Z,1014.37
2018-11-26T09:03:41.342Z,1014.38
2018-11-26T09:04:41.305Z,1014.37
2018-11-26T09:05:41.271Z,1014.41
2018-11-26T09:06:41.891Z,1014.39
2018-11-26T09:07:41.203Z,1014.44
2018-11-26T09:08:41.168Z,1014.41
2018-11-26T09:09:41.133Z,1014.46
2018-11-26T09:10:41.097Z,1014.44
2018-11-26T09:11:41.078Z,1014.48
2018-11-26T09:12:41.028Z,1014.47
2018-11-26T09:13:40.995Z,1014.50
2018-11-26T09:14:40.959Z,1014.50
2018-11-26T09:15:40.923Z,1014.50
2018-11-26T09:16:40.890Z,1014.50
2018-11-26T09:17:40.855Z,1014.51
2018-11-26T09:18:40.821Z,1014.45
2018-11-26T09:19:40.786Z,1014.42
2018-11-26T09:20:40.752Z,1014.42
2018-11-26T09:21:40.717Z,1014.45
2018-11-26T09:22:40.682Z,1014.46
2018-11-26T09:23:40.647Z,1014.51
2018-11-26T09:24:40.615Z,1014.48
2018-11-26T09:25:40.579Z,1014.52
2018-11-26T09:26:40.547Z,1014.52
2018-11-26T09:27:40.512Z,1014.51
2018-11-26T09:28:40.477Z,1014.52
2018-11-26T09:29:40.444Z,1014.49
2018-11-26T09:30:40.409Z,1014.47
2018-11-26T09:31:40.374Z,1014.49
2018-11-26T09:32:40.341Z,1014.46
2018-11-26T09:33:40.307Z,1014.49
2018-11-26T09:34:40.272Z,1014.50
2018-11-26T09:35:40.240Z,1014.49
2018-11-26T09:36:40.205Z,1014.50
2018-11-26T09:37:40.173Z,1014.50
2018-11-26T09:38:40.135Z,1014.50
2018-11-26T09:39:40.101Z,1014.51
2018-11-26T09:40:40.067Z,1014.47
2018-11-26T09:41:40.224Z,1014.49
2018-11-26T09:42:39.997Z,1014.46
2018-11-26T09:43:39.964Z,1014.43
2018-11-26T09:44:39.929Z,1014.41
2018-11-26T09:45:40.445Z,1014.43
2018-11-26T09:46:39.859Z,1014.44
2018-11-26T09:47:39.827Z,1014.44
2018-11-26T09:48:39.794Z,1014.40
2018-11-26T09:49:39.757Z,1014.41
2018-11-26T09:50:39.726Z,1014.39
2018-11-26T09:51:42.182Z,1014.39
2018-11-26T09:52:39.659Z,1014.37
2018-11-26T09:53:39.621Z,1014.38
2018-11-26T09:54:39.586Z,1014.38
2018-11-26T09:55:39.556Z,1014.30
2018-11-26T09:56:39.525Z,1014.36
2018-11-26T09:57:39.493Z,1014.36
2018-11-26T09:58:39.455Z,1014.32
2018-11-26T09:59:39.417Z,1014.30
2018-11-26T10:00:39.385Z,1014.31
2018-11-26T10:01:39.348Z,1014.29
2018-11-26T10:02:39.314Z,1014.26
2018-11-26T10:03:39.285Z,1014.27
2018-11-26T10:04:39.247Z,1014.25
2018-11-26T10:05:39.213Z,1014.28
2018-11-26T10:06:39.179Z,1014.27
2018-11-26T10:07:39.145Z,1014.27
2018-11-26T10:08:39.112Z,1014.29
2018-11-26T10:09:39.077Z,1014.26
2018-11-26T10:10:39.048Z,1014.20
2018-11-26T10:11:39.011Z,1014.23
2018-11-26T10:12:38.980Z,1014.21
2018-11-26T10:13:38.946Z,1014.19
2018-11-26T10:14:38.928Z,1014.23
2018-11-26T10:15:38.875Z,1014.19
2018-11-26T10:16:38.841Z,1014.19
2018-11-26T10:17:38.807Z,1014.18
2018-11-26T10:18:38.774Z,1014.19
2018-11-26T10:19:38.754Z,1014.22
2018-11-26T10:20:38.713Z,1014.21
2018-11-26T10:21:38.672Z,1014.20
2018-11-26T10:22:38.638Z,1014.20
2018-11-26T10:23:38.605Z,1014.19
2018-11-26T10:24:38.572Z,1014.18
2018-11-26T10:25:38.538Z,1014.18
2018-11-26T10:26:38.507Z,1014.19
2018-11-26T10:27:38.470Z,1014.13
2018-11-26T10:28:38.438Z,1014.14
2018-11-26T10:29:38.404Z,1014.13
2018-11-26T10:30:38.373Z,1014.11
2018-11-26T10:31:38.337Z,1014.04
2018-11-26T10:32:38.305Z,1014.10
2018-11-26T10:33:38.273Z,1014.07
2018-11-26T10:34:38.234Z,1014.07
2018-11-26T10:35:38.200Z,1014.03
2018-11-26T10:36:38.172Z,1014.04
2018-11-26T10:37:38.135Z,1014.04
2018-11-26T10:38:38.105Z,1014.02
2018-11-26T10:39:38.068Z,1014.04
2018-11-26T10:40:38.035Z,1014.03
2018-11-26T10:41:38.001Z,1013.97
2018-11-26T10:42:37.967Z,1013.98
2018-11-26T10:43:37.933Z,1013.95
2018-11-26T10:44:37.899Z,1013.96
2018-11-26T10:45:37.866Z,1013.92
2018-11-26T10:46:37.831Z,1013.93
2018-11-26T10:47:37.799Z,1013.93
2018-11-26T10:48:37.766Z,1013.93
2018-11-26T10:49:37.735Z,1013.96
2018-11-26T10:50:37.696Z,1013.98
2018-11-26T10:51:37.663Z,1013.98
2018-11-26T10:52:37.629Z,1013.97
2018-11-26T10:53:37.597Z,1013.95
2018-11-26T10:54:37.561Z,1013.95
2018-11-26T10:55:37.529Z,1013.94
2018-11-26T10:56:37.495Z,1013.93
2018-11-26T10:57:37.460Z,1013.92
2018-11-26T10:58:37.427Z,1013.91
2018-11-26T10:59:37.394Z,1013.90
2018-11-26T11:00:37.362Z,1013.91
2018-11-26T11:01:37.326Z,1013.92
2018-11-26T11:02:37.295Z,1013.87
2018-11-26T11:03:37.260Z,1013.85
2018-11-26T11:04:37.225Z,1013.88
2018-11-26T11:05:37.244Z,1013.87
2018-11-26T11:06:37.161Z,1013.89
2018-11-26T11:07:37.125Z,1013.88
2018-11-26T11:08:37.092Z,1013.83
2018-11-26T11:09:37.104Z,1013.87
2018-11-26T11:10:37.031Z,1013.86
2018-11-26T11:11:36.991Z,1013.88
2018-11-26T11:12:36.959Z,1013.83
2018-11-26T11:13:36.928Z,1013.85
2018-11-26T11:14:36.895Z,1013.81
2018-11-26T11:15:36.857Z,1013.83
2018-11-26T11:16:36.827Z,1013.86
2018-11-26T11:17:36.790Z,1013.90
2018-11-26T11:18:36.757Z,1013.85
2018-11-26T11:19:36.727Z,1013.86
2018-11-26T11:20:36.690Z,1013.86
2018-11-26T11:21:36.657Z,1013.85
2018-11-26T11:22:36.623Z,1013.86
2018-11-26T11:23:36.591Z,1013.83
2018-11-26T11:24:36.556Z,1013.86
2018-11-26T11:25:36.527Z,1013.88
2018-11-26T11:26:36.490Z,1013.85
2018-11-26T11:27:36.456Z,1013.86
2018-11-26T11:28:36.422Z,1013.87
2018-11-26T11:29:36.808Z,1013.88
2018-11-26T11:30:36.355Z,1013.89
2018-11-26T11:31:36.325Z,1013.85
2018-11-26T11:32:36.288Z,1013.84
2018-11-26T11:33:36.255Z,1013.82
2018-11-26T11:34:36.221Z,1013.80
2018-11-26T11:35:36.190Z,1013.78
2018-11-26T11:36:36.155Z,1013.79
2018-11-26T11:37:36.121Z,1013.74
2018-11-26T11:38:36.089Z,1013.79
2018-11-26T11:39:36.055Z,1013.75
2018-11-26T11:40:36.020Z,1013.73
2018-11-26T11:41:35.988Z,1013.75
2018-11-26T11:42:35.955Z,1013.77
2018-11-26T11:43:35.923Z,1013.74
2018-11-26T11:44:35.887Z,1013.79
2018-11-26T11:45:35.853Z,1013.80
2018-11-26T11:46:35.818Z,1013.79
2018-11-26T11:47:35.785Z,1013.76
2018-11-26T11:48:35.755Z,1013.79
2018-11-26T11:49:35.719Z,1013.79
2018-11-26T11:50:35.684Z,1013.79
2018-11-26T11:51:35.652Z,1013.79
2018-11-26T11:52:35.618Z,1013.80
2018-11-26T11:53:35.585Z,1013.80
2018-11-26T11:54:35.552Z,1013.79
2018-11-26T11:55:35.519Z,1013.86
2018-11-26T11:56:35.485Z,1013.87
2018-11-26T11:57:35.451Z,1013.84
2018-11-26T11:58:35.419Z,1013.80
2018-11-26T11:59:35.385Z,1013.84
2018-11-26T12:00:35.351Z,1013.83
2018-11-26T12:01:35.318Z,1013.89
2018-11-26T12:02:35.288Z,1013.85
2018-11-26T12:03:35.252Z,1013.85
2018-11-26T12:04:35.217Z,1013.86